Time;durP1;ratioP1;P1;durP2;ratioP2;P2;SDS_P1;SDS_P2;PMS_P1;PMS_P2;Temp;Humidity;BMP_temperature;BMP_pressure;BME280_temperature;BME280_humidity;BME280_pressure;Samples;Min_cycle;Max_cycle;Signal;HPM_P1;HPM_P2
2022/05/03 00:01:58;;;;;;;35.50;23.90;;;;;;;7.48;62.65;100129.43;1782466;80;26135;-69
2022/05/03 00:04:35;;;;;;;40.23;24.52;;;;;;;7.48;62.01;100121.35;1782679;80;25401;-71
2022/05/03 00:07:57;;;;;;;32.50;25.08;;;;;;;7.51;62.07;100121.86;1782530;80;27644;-70
2022/05/03 00:10:58;;;;;;;34.35;24.23;;;;;;;7.53;62.45;100122.39;1782483;80;25659;-68
2022/05/03 00:13:29;;;;;;;36.25;26.73;;;;;;;7.53;62.15;100115.10;1782798;80;25449;-71
2022/05/03 00:15:57;;;;;;;33.55;24.37;;;;;;;7.55;62.54;100117.50;1780599;80;26171;-69
2022/05/03 00:18:23;;;;;;;37.00;26.82;;;;;;;7.55;62.20;100112.13;1782823;80;25627;-70
2022/05/03 00:20:50;;;;;;;37.83;26.30;;;;;;;7.59;62.64;100117.16;1782953;80;27305;-69
2022/05/03 00:23:17;;;;;;;37.15;26.20;;;;;;;7.59;62.53;100110.43;1782881;80;25659;-69
2022/05/03 00:25:44;;;;;;;36.63;25.00;;;;;;;7.60;62.78;100114.73;1782988;80;25463;-69
2022/05/03 00:28:12;;;;;;;36.55;25.02;;;;;;;7.59;62.67;100115.81;1782966;80;25480;-69
2022/05/03 00:30:41;;;;;;;34.43;25.27;;;;;;;7.60;63.06;100106.66;1783074;80;25564;-69
2022/05/03 00:33:09;;;;;;;36.88;25.35;;;;;;;7.57;63.33;100102.64;1752334;80;27500;-69
2022/05/03 00:35:35;;;;;;;38.48;26.97;;;;;;;7.58;63.56;100102.13;1782923;80;26110;-69
2022/05/03 00:38:01;;;;;;;34.08;25.37;;;;;;;7.57;63.92;100103.20;1783073;79;25390;-70
2022/05/03 00:40:31;;;;;;;34.33;25.68;;;;;;;7.58;63.72;100100.22;1782935;80;25548;-69
2022/05/03 00:43:11;;;;;;;34.23;24.87;;;;;;;7.58;63.42;100096.73;1783024;80;25470;-69
2022/05/03 00:46:04;;;;;;;33.40;24.43;;;;;;;7.60;63.50;100112.04;1783006;80;28230;-68
2022/05/03 00:49:11;;;;;;;32.05;25.23;;;;;;;7.61;63.29;100102.86;1782973;80;25870;-68
2022/05/03 00:55:11;;;;;;;46.95;29.60;;;;;;;7.65;64.76;100098.50;1674533;85;25596;-70
2022/05/03 00:58:00;;;;;;;43.40;27.22;;;;;;;7.66;65.41;100097.39;1674606;85;25494;-72
2022/05/03 01:00:30;;;;;;;41.02;28.52;;;;;;;7.71;65.86;100100.00;1674773;85;27429;-70
2022/05/03 01:03:18;;;;;;;41.33;28.07;;;;;;;7.78;66.17;100101.80;1674564;85;26104;-71
2022/05/03 01:06:04;;;;;;;44.42;27.82;;;;;;;7.85;66.49;100106.24;1674630;85;25547;-70
2022/05/03 01:09:05;;;;;;;38.80;26.52;;;;;;;7.95;66.49;100104.46;1674607;85;25510;-72
2022/05/03 01:11:39;;;;;;;37.40;26.30;;;;;;;8.04;66.25;100106.19;1674617;85;25503;-71
2022/05/03 01:14:43;;;;;;;41.23;29.18;;;;;;;8.12;65.84;100101.20;1674392;85;28256;-71
2022/05/03 01:17:23;;;;;;;38.53;28.45;;;;;;;8.18;66.81;100104.07;1673821;85;25526;-69
2022/05/03 01:20:08;;;;;;;37.30;29.72;;;;;;;8.28;67.11;100099.84;1739880;81;25474;-69
2022/05/03 01:23:04;;;;;;;39.92;29.00;;;;;;;8.36;66.81;100092.94;1754342;81;25615;-69
2022/05/03 01:25:57;;;;;;;39.98;28.62;;;;;;;8.43;66.56;100096.09;1753158;81;25462;-69
2022/05/03 01:28:31;;;;;;;43.42;28.87;;;;;;;8.50;66.80;100098.39;1753432;81;27458;-69
2022/05/03 01:31:07;;;;;;;39.03;27.82;;;;;;;8.56;66.85;100091.26;1754328;81;25671;-70
2022/05/03 01:33:42;;;;;;;40.05;28.42;;;;;;;8.62;67.30;100093.85;1753963;81;25497;-71
2022/05/03 01:36:10;;;;;;;42.83;30.27;;;;;;;8.65;66.97;100095.92;1754314;81;25649;-70
2022/05/03 01:39:03;;;;;;;41.42;29.18;;;;;;;8.69;66.80;100092.89;1754367;81;25411;-69
2022/05/03 01:42:03;;;;;;;40.75;30.02;;;;;;;8.73;66.77;100091.17;1752608;81;28329;-71
2022/05/03 01:44:37;;;;;;;38.33;27.80;;;;;;;8.76;66.96;100093.28;1754252;81;25545;-69
2022/05/03 01:47:24;;;;;;;40.80;29.60;;;;;;;8.81;66.92;100092.38;1754371;81;25410;-68
2022/05/03 01:50:20;;;;;;;41.13;28.27;;;;;;;8.81;67.05;100088.34;1754263;81;25592;-68
2022/05/03 01:53:15;;;;;;;42.73;29.37;;;;;;;8.88;66.76;100090.86;1749934;81;25655;-69
2022/05/03 01:55:53;;;;;;;39.08;28.87;;;;;;;8.91;66.68;100088.91;1708688;84;27685;-70
2022/05/03 01:58:31;;;;;;;39.08;28.67;;;;;;;8.94;66.58;100089.66;1692962;84;25615;-69
2022/05/03 02:01:13;;;;;;;40.88;26.93;;;;;;;8.93;66.30;100085.36;1708421;83;25563;-72
2022/05/03 02:03:53;;;;;;;42.67;29.18;;;;;;;8.89;66.18;100077.63;1693356;84;25731;-70
2022/05/03 02:06:57;;;;;;;38.28;27.42;;;;;;;8.93;66.35;100084.56;1668891;86;25502;-69
2022/05/03 02:09:35;;;;;;;35.78;25.37;;;;;;;8.93;66.23;100089.96;1693659;84;26986;-71
2022/05/03 02:12:19;;;;;;;36.28;26.62;;;;;;;8.91;66.10;100088.91;1664780;84;25667;-69
2022/05/03 02:15:10;;;;;;;40.17;27.60;;;;;;;8.91;65.93;100082.73;1668693;86;25600;-69
2022/05/03 02:18:16;;;;;;;40.67;26.27;;;;;;;8.88;65.96;100086.02;1693620;84;25648;-69
2022/05/03 02:21:12;;;;;;;36.48;25.68;;;;;;;8.87;65.95;100091.98;1651774;85;25788;-69
2022/05/03 02:23:56;;;;;;;35.92;26.15;;;;;;;8.83;65.44;100088.27;1693483;84;27498;-69
2022/05/03 02:26:37;;;;;;;34.38;25.50;;;;;;;8.78;65.28;100086.50;1669239;84;25562;-69
2022/05/03 02:29:09;;;;;;;38.33;27.15;;;;;;;8.74;65.39;100082.80;1693343;84;25787;-70
2022/05/03 02:31:44;;;;;;;35.15;25.70;;;;;;;8.70;65.36;100080.98;1668596;85;25663;-69
2022/05/03 02:34:36;;;;;;;34.38;26.65;;;;;;;8.63;65.16;100077.34;1693592;84;25483;-69
2022/05/03 02:37:17;;;;;;;37.08;27.10;;;;;;;8.58;65.21;100079.62;1668729;86;29697;-70
2022/05/03 02:40:07;;;;;;;36.65;27.17;;;;;;;8.53;64.96;100091.03;1693771;84;25915;-69
2022/05/03 02:42:35;;;;;;;36.95;26.82;;;;;;;8.47;64.99;100083.61;1689672;84;25631;-69
2022/05/03 02:45:05;;;;;;;32.65;25.10;;;;;;;8.41;65.16;100098.23;1708707;84;25497;-69
2022/05/03 02:48:08;;;;;;;35.88;26.23;;;;;;;8.34;65.23;100097.84;1708955;84;25382;-69
2022/05/03 02:51:03;;;;;;;36.60;25.43;;;;;;;8.29;65.40;100101.45;1709016;84;28273;-70
2022/05/03 02:53:54;;;;;;;36.63;26.15;;;;;;;8.21;65.61;100105.62;1718135;81;25634;-71
2022/05/03 02:56:25;;;;;;;38.13;25.37;;;;;;;8.17;65.71;100099.77;1754589;81;25630;-69
2022/05/03 02:59:20;;;;;;;34.65;25.88;;;;;;;8.13;65.51;100101.47;1753920;81;25627;-69
2022/05/03 03:02:07;;;;;;;39.18;25.48;;;;;;;8.10;66.28;100100.16;1754490;81;25552;-69
2022/05/03 03:05:01;;;;;;;36.25;26.23;;;;;;;8.07;66.27;100102.64;1753521;81;27565;-68
2022/05/03 03:07:35;;;;;;;35.43;25.70;;;;;;;8.04;66.38;100103.49;1754378;81;25596;-68
2022/05/03 03:10:12;;;;;;;47.05;26.07;;;;;;;8.01;66.47;100111.37;1753830;81;25599;-70
2022/05/03 03:13:02;;;;;;;32.73;24.02;;;;;;;7.96;66.53;100110.11;1753779;81;25743;-68
2022/05/03 03:15:30;;;;;;;36.95;25.70;;;;;;;7.91;66.24;100104.81;1753869;81;25391;-71
2022/05/03 03:17:58;;;;;;;37.75;25.60;;;;;;;7.88;66.33;100110.23;1726704;81;27502;-71
2022/05/03 03:20:28;;;;;;;29.82;23.80;;;;;;;7.86;66.36;100105.13;1725600;83;25410;-69
2022/05/03 03:22:55;;;;;;;;;;;;;;;7.84;66.59;100111.36;1728305;83;25543;-69
2022/05/03 03:25:23;;;;;;;37.83;24.18;;;;;;;7.84;66.55;100115.95;1754421;81;26424;-71
2022/05/03 03:27:56;;;;;;;31.68;23.38;;;;;;;7.82;66.50;100115.46;1725735;83;25472;-70
2022/05/03 03:30:22;;;;;;;33.33;23.38;;;;;;;7.79;66.49;100122.22;1754417;81;27483;-69
2022/05/03 03:32:53;;;;;;;32.48;23.80;;;;;;;7.79;66.61;100114.14;1738417;82;25666;-69
2022/05/03 03:35:21;;;;;;;33.53;23.87;;;;;;;7.78;66.80;100117.95;1754457;81;25463;-69
2022/05/03 03:37:50;;;;;;;31.27;23.07;;;;;;;7.76;66.75;100117.42;1754385;81;25607;-70
2022/05/03 03:40:18;;;;;;;33.30;23.42;;;;;;;7.77;66.73;100119.03;1754596;81;25595;-69
2022/05/03 03:42:46;;;;;;;32.40;24.30;;;;;;;7.76;66.55;100110.69;1754651;81;27541;-69
2022/05/03 03:45:16;;;;;;;35.28;22.32;;;;;;;7.75;67.03;100114.49;1754345;81;25386;-71
2022/05/03 03:47:44;;;;;;;;;;;;;;;7.77;66.62;100116.89;1757027;81;25436;-70
2022/05/03 03:50:11;;;;;;;31.27;21.35;;;;;;;7.77;66.90;100123.62;1754384;81;25476;-70
2022/05/03 03:52:41;;;;;;;35.75;22.87;;;;;;;7.74;66.98;100114.23;1738518;82;25603;-69
2022/05/03 03:55:10;;;;;;;34.25;21.65;;;;;;;7.76;67.02;100118.77;1752589;80;27479;-69
2022/05/03 03:57:37;;;;;;;30.73;21.20;;;;;;;7.76;67.00;100114.73;1752400;81;25824;-70
2022/05/03 04:00:07;;;;;;;32.48;20.50;;;;;;;7.79;67.11;100119.53;1752248;81;25413;-70
2022/05/03 04:02:35;;;;;;;;;;;;;;;7.82;67.14;100115.46;1754844;81;25608;-69
2022/05/03 04:05:02;;;;;;;28.95;20.12;;;;;;;7.85;67.24;100127.00;1752332;81;25655;-69
2022/05/03 04:07:29;;;;;;;28.60;19.02;;;;;;;7.86;67.02;100114.55;1752249;81;27601;-70
2022/05/03 04:09:55;;;;;;;26.15;18.67;;;;;;;7.92;67.13;100115.29;1752133;81;27110;-69
2022/05/03 04:12:22;;;;;;;32.85;18.92;;;;;;;7.99;67.16;100121.64;1752284;81;25587;-69
2022/05/03 04:14:49;;;;;;;25.43;18.50;;;;;;;8.06;67.50;100126.65;1752209;81;26127;-69
2022/05/03 04:17:15;;;;;;;28.85;19.45;;;;;;;8.13;67.54;100129.75;1752297;81;25496;-68
2022/05/03 04:19:42;;;;;;;29.05;19.60;;;;;;;8.20;67.86;100128.81;1752226;81;26575;-68
2022/05/03 04:22:27;;;;;;;30.23;19.35;;;;;;;8.26;67.56;100130.33;1752165;81;25795;-68
2022/05/03 04:24:54;;;;;;;27.93;19.50;;;;;;;8.31;67.57;100134.28;1752269;81;25561;-68
2022/05/03 04:27:21;;;;;;;24.07;15.80;;;;;;;8.38;67.35;100137.94;1752216;81;25546;-68
2022/05/03 04:29:49;;;;;;;20.90;16.12;;;;;;;8.45;67.11;100140.27;1752212;81;25642;-69
2022/05/03 04:32:15;;;;;;;24.15;15.90;;;;;;;8.51;67.10;100141.23;1752251;81;28262;-69
2022/05/03 04:34:41;;;;;;;19.37;15.32;;;;;;;8.59;66.92;100147.25;1752137;81;25473;-69
2022/05/03 04:37:08;;;;;;;25.20;15.03;;;;;;;8.70;67.14;100145.70;1752245;81;25241;-68
2022/05/03 04:39:34;;;;;;;25.30;15.85;;;;;;;8.79;66.72;100141.22;1752200;81;26067;-69
2022/05/03 04:42:01;;;;;;;23.92;13.43;;;;;;;8.88;66.09;100139.41;1752269;81;25494;-69
2022/05/03 04:44:27;;;;;;;18.73;13.35;;;;;;;8.98;65.50;100140.55;1752239;81;27455;-69
2022/05/03 04:46:54;;;;;;;21.90;13.78;;;;;;;9.09;65.42;100147.08;1752180;81;25401;-68
2022/05/03 04:49:20;;;;;;;23.25;12.78;;;;;;;9.18;64.73;100143.93;1752212;81;25459;-69
2022/05/03 04:51:46;;;;;;;19.55;13.08;;;;;;;9.27;64.21;100143.45;1752176;81;26525;-69
2022/05/03 04:54:12;;;;;;;19.45;12.58;;;;;;;9.36;63.95;100150.27;1747860;81;25452;-69
2022/05/03 04:56:47;;;;;;;18.27;12.47;;;;;;;9.48;63.65;100151.91;1754375;81;28247;-69
2022/05/03 04:59:13;;;;;;;16.80;11.80;;;;;;;9.60;63.43;100153.25;1754303;81;25405;-68
2022/05/03 05:01:39;;;;;;;20.00;12.03;;;;;;;9.76;63.29;100158.55;1754320;81;25365;-71
2022/05/03 05:04:05;;;;;;;17.98;11.30;;;;;;;9.91;63.31;100168.99;1754350;81;25524;-69
2022/05/03 05:06:31;;;;;;;16.07;11.03;;;;;;;10.05;62.70;100162.17;1738502;82;25434;-68
2022/05/03 05:08:57;;;;;;;18.55;11.90;;;;;;;10.20;62.30;100164.23;1754401;81;26980;-71
2022/05/03 05:11:23;;;;;;;15.83;11.45;;;;;;;10.32;61.60;100164.51;1754231;81;33299;-68
2022/05/03 05:13:50;;;;;;;14.35;9.75;;;;;;;10.45;61.45;100167.68;1754358;81;25592;-69
2022/05/03 05:16:17;;;;;;;12.20;9.63;;;;;;;10.56;60.84;100172.25;1754406;81;25654;-69
2022/05/03 05:18:43;;;;;;;16.70;9.68;;;;;;;10.69;60.64;100174.59;1754374;81;25407;-69
2022/05/03 05:21:10;;;;;;;12.73;9.23;;;;;;;10.81;59.38;100172.13;1754382;81;27577;-69
2022/05/03 05:23:37;;;;;;;12.75;8.53;;;;;;;10.95;59.20;100176.63;1754227;81;27234;-69
2022/05/03 05:26:03;;;;;;;18.73;10.13;;;;;;;11.09;58.20;100172.44;1754333;81;25390;-69
2022/05/03 05:28:29;;;;;;;14.35;9.50;;;;;;;11.19;57.59;100164.80;1754302;81;25484;-69
2022/05/03 05:30:56;;;;;;;13.78;9.20;;;;;;;11.33;57.07;100170.64;1754281;81;25603;-69
2022/05/03 05:33:23;;;;;;;14.47;9.23;;;;;;;11.47;56.91;100165.86;1754339;81;27551;-69
2022/05/03 05:35:51;;;;;;;14.15;8.30;;;;;;;11.64;56.58;100162.94;1754246;81;25374;-69
2022/05/03 05:38:19;;;;;;;12.53;8.10;;;;;;;11.83;56.53;100159.89;1754263;81;25543;-70
2022/05/03 05:40:48;;;;;;;13.53;8.13;;;;;;;12.01;55.94;100158.00;1754305;81;25636;-69
2022/05/03 05:43:16;;;;;;;15.80;7.97;;;;;;;12.20;55.28;100161.13;1754646;81;25642;-69
2022/05/03 05:45:43;;;;;;;11.88;8.40;;;;;;;12.38;54.85;100158.37;1754100;81;27548;-69
2022/05/03 05:48:12;;;;;;;11.57;7.83;;;;;;;12.55;53.95;100161.58;1754228;81;25755;-70
2022/05/03 05:50:39;;;;;;;10.65;6.83;;;;;;;12.67;53.81;100154.36;1754652;81;25413;-69
2022/05/03 05:55:52;;;;;;;9.25;5.97;;;;;;;12.93;51.46;100161.57;1752524;81;25469;-68
2022/05/03 05:58:19;;;;;;;7.20;5.15;;;;;;;13.05;51.40;100167.09;1752420;81;28254;-69
2022/05/03 06:00:46;;;;;;;8.60;5.22;;;;;;;13.18;51.19;100168.55;1752105;81;25672;-68
2022/05/03 06:03:13;;;;;;;10.75;5.17;;;;;;;13.32;50.62;100162.89;1752191;81;25396;-70
2022/05/03 06:05:40;;;;;;;12.28;5.53;;;;;;;13.44;50.12;100163.75;1752206;81;25543;-68
2022/05/03 06:08:07;;;;;;;10.25;5.80;;;;;;;13.57;49.29;100163.80;1752184;81;25643;-69
2022/05/03 06:10:33;;;;;;;8.40;5.28;;;;;;;13.68;49.46;100173.16;1752144;81;27470;-69
2022/05/03 06:13:02;;;;;;;5.25;4.72;;;;;;;13.82;48.80;100181.03;1752070;81;25795;-69
2022/05/03 06:15:28;;;;;;;8.03;5.25;;;;;;;13.97;49.06;100180.98;1752148;81;25410;-69
2022/05/03 06:17:54;;;;;;;9.25;5.37;;;;;;;14.15;47.94;100179.69;1752148;81;25561;-72
2022/05/03 06:20:21;;;;;;;6.87;5.03;;;;;;;14.33;48.20;100187.66;1752184;81;25422;-69
2022/05/03 06:22:47;;;;;;;7.00;5.00;;;;;;;14.53;47.65;100183.28;1752204;81;27606;-69
2022/05/03 06:25:14;;;;;;;7.37;4.75;;;;;;;14.71;47.46;100187.42;1752263;81;25815;-69
2022/05/03 06:27:40;;;;;;;7.65;5.12;;;;;;;14.85;46.04;100184.36;1752341;81;25409;-69
2022/05/03 06:30:08;;;;;;;7.85;5.53;;;;;;;15.00;46.16;100187.52;1752312;81;25479;-71
2022/05/03 06:32:40;;;;;;;9.38;4.75;;;;;;;15.15;45.56;100186.83;1752339;81;25557;-70
2022/05/03 06:35:07;;;;;;;7.30;5.30;;;;;;;15.29;45.63;100187.28;1752352;81;27493;-71
2022/05/03 06:37:38;;;;;;;7.35;4.58;;;;;;;15.43;44.32;100191.00;1752376;81;25670;-70
2022/05/03 06:40:08;;;;;;;7.75;4.83;;;;;;;15.56;44.55;100189.59;1752365;81;25161;-71
2022/05/03 06:42:38;;;;;;;7.15;4.75;;;;;;;15.74;43.79;100191.48;1752404;81;25555;-70
2022/05/03 06:45:07;;;;;;;7.80;4.55;;;;;;;15.94;43.80;100188.38;1751529;81;25675;-70
2022/05/03 06:47:34;;;;;;;11.15;5.10;;;;;;;16.21;43.53;100187.56;1752256;81;28146;-70
2022/05/03 06:50:01;;;;;;;8.03;4.72;;;;;;;16.44;42.99;100186.96;1752259;81;25658;-70
2022/05/03 06:52:28;;;;;;;5.70;4.67;;;;;;;16.65;42.48;100190.80;1752278;81;25459;-70
2022/05/03 06:54:54;;;;;;;9.00;5.92;;;;;;;16.89;41.97;100184.95;1752176;80;26231;-71
2022/05/03 06:57:20;;;;;;;6.28;4.45;;;;;;;17.17;41.99;100188.34;1752351;81;25608;-70
2022/05/03 06:59:46;;;;;;;9.60;4.62;;;;;;;17.40;41.05;100187.70;1752367;81;27583;-71
2022/05/03 07:02:12;;;;;;;11.03;5.17;;;;;;;17.58;40.99;100188.64;1752340;81;25719;-71
2022/05/03 07:04:39;;;;;;;6.30;4.20;;;;;;;17.85;40.34;100196.42;1752357;81;25542;-71
2022/05/03 07:07:05;;;;;;;6.78;5.25;;;;;;;18.06;40.09;100199.59;1752244;81;26041;-71
2022/05/03 07:09:31;;;;;;;7.67;4.85;;;;;;;18.23;39.39;100189.34;1752358;81;25417;-71
2022/05/03 07:11:57;;;;;;;8.63;4.30;;;;;;;18.40;39.09;100190.82;1752326;81;28146;-71
2022/05/03 07:14:23;;;;;;;8.55;4.20;;;;;;;18.60;38.84;100198.41;1752224;81;25652;-71
2022/05/03 07:16:49;;;;;;;6.28;3.90;;;;;;;18.87;38.83;100195.75;1752293;81;25556;-71
2022/05/03 07:24:45;;;;;;;13.28;6.35;;;;;;;19.59;37.21;100202.44;1752423;81;28004;-70
2022/05/03 07:27:13;;;;;;;6.17;4.03;;;;;;;19.88;37.52;100202.82;1752294;81;25461;-70
2022/05/03 07:29:39;;;;;;;5.12;3.67;;;;;;;20.24;36.72;100202.42;1752329;81;25614;-70
2022/05/03 07:32:06;;;;;;;6.53;4.22;;;;;;;20.53;35.84;100205.67;1752189;81;25633;-70
2022/05/03 07:34:32;;;;;;;7.20;3.70;;;;;;;20.64;34.54;100207.16;1752311;81;25405;-70
2022/05/03 07:36:58;;;;;;;7.65;3.87;;;;;;;20.75;34.13;100200.96;1752259;81;27471;-70
2022/05/03 07:39:25;;;;;;;6.17;4.00;;;;;;;20.88;34.42;100208.52;1752226;81;25660;-70
2022/05/03 07:41:52;;;;;;;6.95;4.70;;;;;;;20.96;33.84;100209.38;1752283;81;25624;-71
2022/05/03 07:44:19;;;;;;;6.53;4.30;;;;;;;21.17;33.84;100212.85;1752240;81;25553;-71
2022/05/03 07:46:45;;;;;;;5.80;3.37;;;;;;;21.34;32.59;100216.88;1752257;81;25406;-71
2022/05/03 07:49:11;;;;;;;7.62;4.00;;;;;;;21.41;33.02;100212.02;1752204;81;27740;-71
2022/05/03 07:51:42;;;;;;;4.70;3.90;;;;;;;21.56;32.55;100212.91;1752091;81;25766;-71
2022/05/03 07:54:09;;;;;;;8.28;4.45;;;;;;;21.72;32.11;100219.47;1752226;81;25411;-71
2022/05/03 07:56:36;;;;;;;6.55;4.22;;;;;;;21.96;32.37;100220.73;1752219;80;26090;-70
2022/05/03 07:59:03;;;;;;;4.50;3.40;;;;;;;22.33;32.38;100220.46;1752320;81;25439;-70
2022/05/03 08:01:29;;;;;;;4.72;3.50;;;;;;;22.56;31.44;100220.11;1752256;81;27578;-70
2022/05/03 08:03:55;;;;;;;6.35;3.25;;;;;;;22.71;31.10;100214.59;1752172;81;25780;-68
2022/05/03 08:06:24;;;;;;;5.03;3.05;;;;;;;22.87;31.01;100222.48;1752245;81;25562;-67
2022/05/03 08:08:50;;;;;;;6.97;3.27;;;;;;;23.14;31.06;100222.88;1751964;81;25527;-68
2022/05/03 08:11:18;;;;;;;5.37;3.25;;;;;;;23.41;30.41;100223.22;1752252;81;25618;-68
2022/05/03 08:13:45;;;;;;;4.87;3.50;;;;;;;23.51;29.87;100228.50;1751501;80;27450;-67
2022/05/03 08:16:20;;;;;;;7.85;3.15;;;;;;;23.68;29.24;100215.82;1738760;80;25746;-68
2022/05/03 08:18:50;;;;;;;4.67;4.08;;;;;;;23.77;29.58;100227.81;1732568;82;25383;-68
2022/05/03 08:21:18;;;;;;;6.25;3.50;;;;;;;23.88;29.23;100224.45;1734360;82;25580;-68
2022/05/03 08:23:44;;;;;;;8.20;3.10;;;;;;;23.96;28.54;100220.47;1736402;82;25615;-68
2022/05/03 08:26:11;;;;;;;9.28;4.00;;;;;;;24.02;28.31;100223.59;1736144;82;27472;-68
2022/05/03 08:28:37;;;;;;;5.22;3.00;;;;;;;24.08;27.75;100223.37;1736001;82;25627;-67
2022/05/03 08:31:04;;;;;;;4.92;2.85;;;;;;;24.15;28.03;100226.09;1736182;82;25631;-66
2022/05/03 08:33:30;;;;;;;6.00;3.33;;;;;;;24.26;27.64;100222.48;1736164;82;25857;-66
2022/05/03 08:35:56;;;;;;;6.17;3.22;;;;;;;24.23;27.64;100231.77;1736039;82;25670;-69
2022/05/03 08:43:53;;;;;;;12.30;6.78;;;;;;;24.54;27.44;100230.61;1736029;82;25420;-65
2022/05/03 08:46:21;;;;;;;14.00;4.37;;;;;;;24.61;27.25;100226.41;1735994;82;27718;-66
2022/05/03 08:48:56;;;;;;;4.03;3.20;;;;;;;24.61;26.42;100226.41;1736279;82;25653;-65
2022/05/03 08:51:23;;;;;;;4.25;3.20;;;;;;;24.46;26.33;100243.48;1736105;82;27453;-67
2022/05/03 08:53:51;;;;;;;7.30;4.65;;;;;;;24.44;26.43;100234.20;1736104;82;25675;-67
2022/05/03 08:56:19;;;;;;;27.62;14.53;;;;;;;24.53;26.50;100219.92;1737000;81;26304;-67
2022/05/03 08:58:46;;;;;;;4.37;3.92;;;;;;;24.56;26.33;100226.84;1737821;82;26116;-67
2022/05/03 09:01:15;;;;;;;18.00;10.85;;;;;;;24.41;25.75;100218.42;1737786;82;25270;-66
2022/05/03 09:03:41;;;;;;;4.22;3.83;;;;;;;24.19;26.25;100219.94;1737927;82;27520;-67
2022/05/03 09:06:08;;;;;;;6.95;3.70;;;;;;;24.12;25.38;100225.51;1735455;82;25743;-72
2022/05/03 09:08:35;;;;;;;5.95;3.50;;;;;;;23.95;25.42;100225.80;1735615;82;25755;-71
2022/05/03 09:11:17;;;;;;;4.90;3.20;;;;;;;23.89;25.63;100220.52;1740453;82;26162;-73
2022/05/03 09:13:45;;;;;;;5.08;3.25;;;;;;;23.85;25.47;100228.02;1740599;81;25826;-72
2022/05/03 09:16:16;;;;;;;4.28;3.05;;;;;;;23.56;25.38;100210.75;1740777;82;27557;-71
2022/05/03 09:18:45;;;;;;;5.55;3.27;;;;;;;23.48;25.67;100210.78;1740162;81;25806;-71
2022/05/03 09:24:12;;;;;;;6.50;3.42;;;;;;;23.71;26.01;100211.48;1740500;82;26258;-70
2022/05/03 09:26:39;;;;;;;4.80;3.60;;;;;;;23.80;25.54;100221.49;1740351;82;25753;-71
2022/05/03 09:29:10;;;;;;;6.78;3.90;;;;;;;23.77;25.58;100203.77;1741009;80;28146;-70
2022/05/03 09:31:47;;;;;;;9.50;4.25;;;;;;;23.67;25.92;100206.77;1748738;81;25645;-70
2022/05/03 09:34:27;;;;;;;6.25;3.27;;;;;;;23.71;25.45;100214.25;1739051;82;25553;-70
2022/05/03 09:37:02;;;;;;;7.75;4.05;;;;;;;23.47;25.73;100204.27;1740523;82;26026;-72
2022/05/03 09:39:32;;;;;;;9.60;4.42;;;;;;;23.43;25.97;100204.28;1727496;82;25816;-71
2022/05/03 09:42:19;;;;;;;10.45;7.12;;;;;;;23.70;25.99;100210.70;1740053;80;27485;-70
2022/05/03 09:44:57;;;;;;;10.63;7.70;;;;;;;23.83;25.75;100202.17;1737793;82;25750;-70
2022/05/03 09:47:32;;;;;;;6.55;3.67;;;;;;;24.10;26.10;100199.48;1737799;82;25638;-72
2022/05/03 09:49:59;;;;;;;9.33;3.60;;;;;;;24.47;25.61;100190.55;1737416;82;25572;-72
2022/05/03 09:52:36;;;;;;;7.75;3.52;;;;;;;24.59;25.57;100198.38;1737822;82;25531;-71
2022/05/03 09:55:09;;;;;;;4.47;3.20;;;;;;;24.77;24.54;100195.48;1737889;82;27490;-71
2022/05/03 09:57:39;;;;;;;4.92;3.15;;;;;;;24.50;24.57;100187.55;1737491;82;25756;-71
2022/05/03 10:00:09;;;;;;;5.20;2.72;;;;;;;24.57;24.94;100191.09;1737901;82;25402;-72
2022/05/03 10:02:40;;;;;;;6.87;3.37;;;;;;;25.02;25.13;100183.98;1737830;82;26042;-72
2022/05/03 10:05:08;;;;;;;4.22;3.22;;;;;;;25.22;24.68;100186.95;1737694;82;25685;-73
2022/05/03 10:07:35;;;;;;;6.47;3.05;;;;;;;25.35;23.54;100186.03;1737778;82;27509;-72
2022/05/03 10:10:06;;;;;;;7.00;2.52;;;;;;;25.29;23.21;100173.05;1737824;82;25832;-73
2022/05/03 10:12:35;;;;;;;4.85;3.55;;;;;;;24.98;23.94;100179.87;1737700;82;25518;-72
2022/05/03 10:15:03;;;;;;;5.37;3.70;;;;;;;25.04;24.32;100191.27;1738038;82;25691;-72
2022/05/03 10:20:46;;;;;;;7.33;3.52;;;;;;;24.99;23.98;100182.81;1737991;82;27397;-72
2022/05/03 10:23:28;;;;;;;7.33;3.60;;;;;;;24.59;24.39;100186.55;1737421;82;25481;-72
2022/05/03 10:26:03;;;;;;;6.17;3.85;;;;;;;24.69;24.55;100193.96;1738407;82;25658;-71
2022/05/03 10:29:05;;;;;;;10.78;5.72;;;;;;;24.39;24.08;100184.88;1738377;82;25715;-72
2022/05/03 10:31:53;;;;;;;8.50;3.30;;;;;;;24.12;24.46;100186.83;1731161;82;25628;-73
2022/05/03 10:34:48;;;;;;;8.45;3.50;;;;;;;23.92;24.65;100186.55;1729919;83;27318;-71
2022/05/03 10:37:22;;;;;;;6.42;2.40;;;;;;;23.68;24.91;100190.40;1730236;83;25783;-71
2022/05/03 10:40:00;;;;;;;7.08;2.98;;;;;;;24.09;25.13;100187.63;1727649;82;25430;-72
2022/05/03 10:42:31;;;;;;;4.05;2.67;;;;;;;24.58;24.76;100196.02;1730903;83;25577;-73
2022/05/03 10:45:01;;;;;;;10.82;4.33;;;;;;;24.93;24.58;100193.55;1730821;82;25235;-72
2022/05/03 10:47:49;;;;;;;4.60;2.85;;;;;;;25.15;24.50;100182.27;1730488;82;27312;-71
2022/05/03 10:50:29;;;;;;;5.92;3.05;;;;;;;25.42;23.23;100182.40;1730955;83;25691;-71
2022/05/03 10:53:07;;;;;;;4.33;2.72;;;;;;;25.34;23.29;100176.75;1730486;82;25329;-72
2022/05/03 10:55:38;;;;;;;7.95;3.05;;;;;;;25.37;23.31;100183.43;1730466;83;26083;-70
2022/05/03 10:58:30;;;;;;;4.78;2.83;;;;;;;25.64;22.92;100182.12;1750322;81;25437;-69
2022/05/03 11:01:20;;;;;;;5.22;2.80;;;;;;;25.71;23.86;100180.05;1751151;82;27578;-70
2022/05/03 11:04:01;;;;;;;5.85;4.22;;;;;;;26.12;23.21;100180.31;1750794;81;25749;-69
2022/05/03 11:06:32;;;;;;;3.62;2.40;;;;;;;26.26;22.99;100180.89;1751131;82;25508;-70
2022/05/03 11:11:47;;;;;;;3.50;2.30;;;;;;;26.92;23.22;100176.47;1751096;81;25378;-70
2022/05/03 11:14:22;;;;;;;5.47;2.60;;;;;;;27.28;23.09;100175.23;1751339;81;27368;-69
2022/05/03 11:17:11;;;;;;;2.90;2.33;;;;;;;27.24;22.33;100177.87;1751117;81;25418;-69
2022/05/03 11:19:55;;;;;;;4.60;2.42;;;;;;;26.71;22.33;100177.02;1751240;81;25465;-70
2022/05/03 11:22:26;;;;;;;2.55;2.20;;;;;;;26.00;22.16;100176.13;1750890;81;25708;-70
2022/05/03 11:24:57;;;;;;;7.85;2.70;;;;;;;25.33;22.50;100174.56;1751037;81;25759;-70
2022/05/03 11:27:25;;;;;;;4.85;2.47;;;;;;;24.73;23.10;100173.97;1751039;81;27313;-72
2022/05/03 11:30:01;;;;;;;5.50;2.37;;;;;;;24.14;23.49;100182.28;1751266;81;25614;-72
2022/05/03 11:32:37;;;;;;;5.90;2.10;;;;;;;23.73;24.21;100178.12;1751005;81;25765;-72
2022/05/03 11:35:08;;;;;;;3.58;2.15;;;;;;;23.36;24.77;100178.09;1751304;81;25389;-71
2022/05/03 11:37:36;;;;;;;3.25;2.27;;;;;;;23.24;25.28;100172.42;1751235;81;25641;-71
2022/05/03 11:40:09;;;;;;;8.50;2.50;;;;;;;23.35;24.84;100176.52;1750981;81;27369;-71
2022/05/03 11:42:42;;;;;;;5.30;2.62;;;;;;;23.03;24.93;100187.00;1751194;81;25546;-71
2022/05/03 11:45:11;;;;;;;5.47;2.40;;;;;;;22.74;24.88;100175.22;1751115;81;25638;-72
2022/05/03 11:47:41;;;;;;;9.43;2.80;;;;;;;22.37;25.37;100181.32;1750844;81;25942;-71
2022/05/03 11:50:11;;;;;;;5.58;2.85;;;;;;;22.12;25.46;100180.47;1750245;81;26255;-72
2022/05/03 11:58:07;;;;;;;4.05;3.33;;;;;;;21.13;26.89;100175.49;1707497;81;25646;-72
2022/05/03 12:00:46;;;;;;;6.97;2.90;;;;;;;21.12;27.79;100178.05;1705209;84;25908;-71
2022/05/03 12:03:13;;;;;;;6.90;3.80;;;;;;;21.51;27.74;100175.54;1705123;84;25425;-73
2022/05/03 12:05:40;;;;;;;7.28;2.90;;;;;;;21.52;27.03;100175.75;1705267;84;27328;-73
2022/05/03 12:08:19;;;;;;;12.00;4.53;;;;;;;21.39;27.12;100178.60;1704982;83;25803;-72
2022/05/03 12:10:45;;;;;;;30.75;9.13;;;;;;;21.23;27.19;100176.95;1688860;84;28813;-72
2022/05/03 12:13:15;;;;;;;5.78;3.27;;;;;;;21.00;27.33;100176.41;1688800;84;25784;-75
2022/05/03 12:15:48;;;;;;;5.37;2.95;;;;;;;20.74;27.40;100171.88;1705290;84;25608;-72
2022/05/03 12:18:19;;;;;;;4.53;2.90;;;;;;;20.47;27.73;100182.45;1704923;84;27171;-72
2022/05/03 12:21:03;;;;;;;4.65;3.20;;;;;;;20.31;27.93;100174.47;1705133;83;25697;-73